sensor_id;sensor_type;location;lat;lon;timestamp;P1;durP1;ratioP1;P2;durP2;ratioP2
74541;SDS011;63015;45.378;20.360;2022-10-31T00:01:53;123.68;;;38.70;;
74541;SDS011;63015;45.378;20.360;2022-10-31T00:03:54;109.82;;;35.97;;
74541;SDS011;63015;45.378;20.360;2022-10-31T00:05:54;117.70;;;36.83;;
74541;SDS011;63015;45.378;20.360;2022-10-31T00:07:55;113.05;;;35.78;;
74541;SDS011;63015;45.378;20.360;2022-10-31T00:09:55;117.50;;;37.90;;
74541;SDS011;63015;45.378;20.360;2022-10-31T00:11:56;105.63;;;34.25;;
74541;SDS011;63015;45.378;20.360;2022-10-31T00:13:57;123.88;;;35.78;;
74541;SDS011;63015;45.378;20.360;2022-10-31T00:15:59;116.47;;;36.50;;
74541;SDS011;63015;45.378;20.360;2022-10-31T00:17:59;95.57;;;32.30;;
74541;SDS011;63015;45.378;20.360;2022-10-31T00:20:00;114.15;;;32.92;;
74541;SDS011;63015;45.378;20.360;2022-10-31T00:22:00;115.95;;;35.80;;
74541;SDS011;63015;45.378;20.360;2022-10-31T00:24:01;111.25;;;33.70;;
74541;SDS011;63015;45.378;20.360;2022-10-31T00:26:03;121.97;;;34.65;;
74541;SDS011;63015;45.378;20.360;2022-10-31T00:28:04;142.57;;;36.78;;
74541;SDS011;63015;45.378;20.360;2022-10-31T00:30:06;117.60;;;35.25;;
74541;SDS011;63015;45.378;20.360;2022-10-31T00:32:07;119.75;;;35.88;;
74541;SDS011;63015;45.378;20.360;2022-10-31T00:34:08;106.50;;;34.10;;
74541;SDS011;63015;45.378;20.360;2022-10-31T00:36:10;113.57;;;35.95;;
74541;SDS011;63015;45.378;20.360;2022-10-31T00:38:15;115.70;;;36.08;;
74541;SDS011;63015;45.378;20.360;2022-10-31T00:40:16;112.18;;;34.45;;
74541;SDS011;63015;45.378;20.360;2022-10-31T00:42:16;112.68;;;35.95;;
74541;SDS011;63015;45.378;20.360;2022-10-31T00:44:18;114.70;;;35.47;;
74541;SDS011;63015;45.378;20.360;2022-10-31T00:46:20;114.10;;;35.53;;
74541;SDS011;63015;45.378;20.360;2022-10-31T00:48:20;111.78;;;35.65;;
74541;SDS011;63015;45.378;20.360;2022-10-31T00:50:22;123.63;;;37.63;;
74541;SDS011;63015;45.378;20.360;2022-10-31T00:52:23;119.80;;;37.22;;
74541;SDS011;63015;45.378;20.360;2022-10-31T00:54:23;115.85;;;34.63;;
74541;SDS011;63015;45.378;20.360;2022-10-31T00:56:24;108.25;;;34.53;;
74541;SDS011;63015;45.378;20.360;2022-10-31T00:58:25;118.20;;;35.63;;
74541;SDS011;63015;45.378;20.360;2022-10-31T01:00:26;138.05;;;38.03;;
74541;SDS011;63015;45.378;20.360;2022-10-31T01:02:27;127.05;;;37.00;;
74541;SDS011;63015;45.378;20.360;2022-10-31T01:04:27;131.35;;;38.78;;
74541;SDS011;63015;45.378;20.360;2022-10-31T01:06:30;140.95;;;37.70;;
74541;SDS011;63015;45.378;20.360;2022-10-31T01:08:31;129.52;;;37.20;;
74541;SDS011;63015;45.378;20.360;2022-10-31T01:10:31;136.40;;;37.15;;
74541;SDS011;63015;45.378;20.360;2022-10-31T01:12:35;118.78;;;34.03;;
74541;SDS011;63015;45.378;20.360;2022-10-31T01:14:43;143.93;;;35.97;;
74541;SDS011;63015;45.378;20.360;2022-10-31T01:16:45;133.63;;;35.55;;
74541;SDS011;63015;45.378;20.360;2022-10-31T01:18:45;133.80;;;34.00;;
74541;SDS011;63015;45.378;20.360;2022-10-31T01:20:47;121.47;;;34.10;;
74541;SDS011;63015;45.378;20.360;2022-10-31T01:22:58;134.70;;;34.90;;
74541;SDS011;63015;45.378;20.360;2022-10-31T01:24:58;134.23;;;34.80;;
74541;SDS011;63015;45.378;20.360;2022-10-31T01:26:59;141.70;;;36.45;;
74541;SDS011;63015;45.378;20.360;2022-10-31T01:29:01;142.20;;;34.92;;
74541;SDS011;63015;45.378;20.360;2022-10-31T01:31:06;128.80;;;35.88;;
74541;SDS011;63015;45.378;20.360;2022-10-31T01:33:08;130.45;;;33.05;;
74541;SDS011;63015;45.378;20.360;2022-10-31T01:35:09;122.32;;;32.35;;
74541;SDS011;63015;45.378;20.360;2022-10-31T01:37:09;112.38;;;31.45;;
74541;SDS011;63015;45.378;20.360;2022-10-31T01:39:12;109.13;;;26.65;;
74541;SDS011;63015;45.378;20.360;2022-10-31T01:41:15;121.57;;;31.70;;
74541;SDS011;63015;45.378;20.360;2022-10-31T01:43:18;114.53;;;30.77;;
74541;SDS011;63015;45.378;20.360;2022-10-31T01:45:19;127.07;;;32.60;;
74541;SDS011;63015;45.378;20.360;2022-10-31T01:47:21;112.88;;;30.52;;
74541;SDS011;63015;45.378;20.360;2022-10-31T01:49:34;118.95;;;31.77;;
74541;SDS011;63015;45.378;20.360;2022-10-31T01:51:39;147.57;;;33.92;;
74541;SDS011;63015;45.378;20.360;2022-10-31T01:53:45;124.95;;;33.20;;
74541;SDS011;63015;45.378;20.360;2022-10-31T01:55:46;124.30;;;31.55;;
74541;SDS011;63015;45.378;20.360;2022-10-31T01:57:50;122.40;;;30.17;;
74541;SDS011;63015;45.378;20.360;2022-10-31T01:59:54;114.55;;;29.42;;
74541;SDS011;63015;45.378;20.360;2022-10-31T02:01:59;128.88;;;32.67;;
74541;SDS011;63015;45.378;20.360;2022-10-31T02:04:00;117.13;;;31.02;;
74541;SDS011;63015;45.378;20.360;2022-10-31T02:06:01;122.20;;;30.33;;
74541;SDS011;63015;45.378;20.360;2022-10-31T02:10:38;108.82;;;30.00;;
74541;SDS011;63015;45.378;20.360;2022-10-31T02:12:41;96.88;;;28.42;;
74541;SDS011;63015;45.378;20.360;2022-10-31T02:14:44;124.75;;;29.70;;
74541;SDS011;63015;45.378;20.360;2022-10-31T02:16:44;100.90;;;28.58;;
74541;SDS011;63015;45.378;20.360;2022-10-31T02:18:45;105.00;;;27.75;;
74541;SDS011;63015;45.378;20.360;2022-10-31T02:30:18;116.65;;;28.70;;
74541;SDS011;63015;45.378;20.360;2022-10-31T02:37:38;98.25;;;28.17;;
74541;SDS011;63015;45.378;20.360;2022-10-31T02:45:28;90.63;;;26.95;;
74541;SDS011;63015;45.378;20.360;2022-10-31T02:47:34;93.85;;;28.23;;
74541;SDS011;63015;45.378;20.360;2022-10-31T02:49:54;111.70;;;28.40;;
74541;SDS011;63015;45.378;20.360;2022-10-31T02:52:00;98.53;;;26.40;;
74541;SDS011;63015;45.378;20.360;2022-10-31T02:54:01;113.85;;;28.60;;
74541;SDS011;63015;45.378;20.360;2022-10-31T02:56:04;139.52;;;29.10;;
74541;SDS011;63015;45.378;20.360;2022-10-31T02:58:10;111.20;;;28.77;;
74541;SDS011;63015;45.378;20.360;2022-10-31T03:00:15;110.22;;;28.20;;
74541;SDS011;63015;45.378;20.360;2022-10-31T03:02:25;131.18;;;30.15;;
74541;SDS011;63015;45.378;20.360;2022-10-31T03:11:03;108.85;;;27.35;;
74541;SDS011;63015;45.378;20.360;2022-10-31T03:13:29;103.57;;;25.83;;
74541;SDS011;63015;45.378;20.360;2022-10-31T03:15:39;113.85;;;28.42;;
74541;SDS011;63015;45.378;20.360;2022-10-31T03:17:53;138.55;;;30.17;;
74541;SDS011;63015;45.378;20.360;2022-10-31T03:20:09;170.48;;;28.23;;
74541;SDS011;63015;45.378;20.360;2022-10-31T03:22:17;119.03;;;28.33;;
74541;SDS011;63015;45.378;20.360;2022-10-31T03:24:22;147.60;;;31.55;;
74541;SDS011;63015;45.378;20.360;2022-10-31T03:26:29;141.35;;;32.35;;
74541;SDS011;63015;45.378;20.360;2022-10-31T03:28:34;131.38;;;32.17;;
74541;SDS011;63015;45.378;20.360;2022-10-31T03:30:40;120.50;;;31.13;;
74541;SDS011;63015;45.378;20.360;2022-10-31T03:32:44;136.35;;;32.67;;
74541;SDS011;63015;45.378;20.360;2022-10-31T03:34:49;141.73;;;30.52;;
74541;SDS011;63015;45.378;20.360;2022-10-31T03:36:55;136.27;;;33.67;;
74541;SDS011;63015;45.378;20.360;2022-10-31T03:38:57;124.53;;;31.52;;
74541;SDS011;63015;45.378;20.360;2022-10-31T03:41:02;134.38;;;33.67;;
74541;SDS011;63015;45.378;20.360;2022-10-31T03:43:06;170.70;;;34.53;;
74541;SDS011;63015;45.378;20.360;2022-10-31T03:45:29;165.13;;;29.30;;
74541;SDS011;63015;45.378;20.360;2022-10-31T03:47:30;140.38;;;32.20;;
74541;SDS011;63015;45.378;20.360;2022-10-31T03:49:33;155.23;;;31.20;;
74541;SDS011;63015;45.378;20.360;2022-10-31T03:53:53;125.50;;;28.50;;
74541;SDS011;63015;45.378;20.360;2022-10-31T04:00:18;102.03;;;29.90;;
74541;SDS011;63015;45.378;20.360;2022-10-31T04:02:20;121.13;;;29.02;;
74541;SDS011;63015;45.378;20.360;2022-10-31T04:04:26;114.25;;;29.40;;
74541;SDS011;63015;45.378;20.360;2022-10-31T04:06:29;112.68;;;28.70;;
74541;SDS011;63015;45.378;20.360;2022-10-31T04:08:32;152.55;;;27.85;;
74541;SDS011;63015;45.378;20.360;2022-10-31T04:10:38;146.30;;;28.35;;
74541;SDS011;63015;45.378;20.360;2022-10-31T04:12:39;125.05;;;30.38;;
74541;SDS011;63015;45.378;20.360;2022-10-31T04:14:54;114.47;;;28.83;;
74541;SDS011;63015;45.378;20.360;2022-10-31T04:16:57;128.43;;;28.13;;
74541;SDS011;63015;45.378;20.360;2022-10-31T04:19:06;118.63;;;28.55;;
74541;SDS011;63015;45.378;20.360;2022-10-31T04:21:07;113.00;;;28.20;;
74541;SDS011;63015;45.378;20.360;2022-10-31T04:23:13;99.13;;;24.55;;
74541;SDS011;63015;45.378;20.360;2022-10-31T04:25:19;117.68;;;26.30;;
74541;SDS011;63015;45.378;20.360;2022-10-31T04:27:20;110.95;;;25.50;;
74541;SDS011;63015;45.378;20.360;2022-10-31T04:29:20;119.40;;;27.25;;
74541;SDS011;63015;45.378;20.360;2022-10-31T04:31:21;123.03;;;28.65;;
74541;SDS011;63015;45.378;20.360;2022-10-31T04:33:23;121.03;;;28.90;;
74541;SDS011;63015;45.378;20.360;2022-10-31T04:35:24;129.35;;;29.48;;
74541;SDS011;63015;45.378;20.360;2022-10-31T04:37:26;94.75;;;28.35;;
74541;SDS011;63015;45.378;20.360;2022-10-31T04:39:26;101.95;;;26.25;;
74541;SDS011;63015;45.378;20.360;2022-10-31T04:41:53;115.25;;;27.77;;
74541;SDS011;63015;45.378;20.360;2022-10-31T04:43:54;130.52;;;28.83;;
74541;SDS011;63015;45.378;20.360;2022-10-31T04:45:55;169.82;;;29.35;;
74541;SDS011;63015;45.378;20.360;2022-10-31T04:47:56;181.68;;;31.17;;
74541;SDS011;63015;45.378;20.360;2022-10-31T04:49:57;152.30;;;31.35;;
74541;SDS011;63015;45.378;20.360;2022-10-31T04:51:58;179.43;;;29.30;;
74541;SDS011;63015;45.378;20.360;2022-10-31T04:53:58;158.27;;;29.50;;
74541;SDS011;63015;45.378;20.360;2022-10-31T04:56:02;152.10;;;30.70;;
74541;SDS011;63015;45.378;20.360;2022-10-31T04:58:12;130.75;;;28.63;;
74541;SDS011;63015;45.378;20.360;2022-10-31T05:00:13;157.80;;;31.10;;
74541;SDS011;63015;45.378;20.360;2022-10-31T05:02:15;125.53;;;28.45;;
74541;SDS011;63015;45.378;20.360;2022-10-31T05:04:21;135.05;;;29.98;;
74541;SDS011;63015;45.378;20.360;2022-10-31T05:06:21;202.45;;;30.50;;
74541;SDS011;63015;45.378;20.360;2022-10-31T05:08:22;146.60;;;32.22;;
74541;SDS011;63015;45.378;20.360;2022-10-31T05:10:26;135.60;;;29.15;;
74541;SDS011;63015;45.378;20.360;2022-10-31T05:12:31;221.60;;;32.90;;
74541;SDS011;63015;45.378;20.360;2022-10-31T05:14:41;146.70;;;32.45;;
74541;SDS011;63015;45.378;20.360;2022-10-31T05:17:05;136.05;;;31.70;;
74541;SDS011;63015;45.378;20.360;2022-10-31T05:19:37;128.50;;;28.85;;
74541;SDS011;63015;45.378;20.360;2022-10-31T05:22:16;140.95;;;30.30;;
74541;SDS011;63015;45.378;20.360;2022-10-31T05:24:17;160.05;;;28.17;;
74541;SDS011;63015;45.378;20.360;2022-10-31T05:26:21;150.55;;;29.13;;
74541;SDS011;63015;45.378;20.360;2022-10-31T05:28:21;124.90;;;29.67;;
74541;SDS011;63015;45.378;20.360;2022-10-31T05:30:24;143.18;;;30.27;;
74541;SDS011;63015;45.378;20.360;2022-10-31T05:32:26;126.30;;;29.50;;
74541;SDS011;63015;45.378;20.360;2022-10-31T05:34:59;105.85;;;27.92;;
74541;SDS011;63015;45.378;20.360;2022-10-31T05:37:35;182.43;;;30.95;;
74541;SDS011;63015;45.378;20.360;2022-10-31T05:39:36;133.77;;;29.55;;
74541;SDS011;63015;45.378;20.360;2022-10-31T05:41:42;121.03;;;27.45;;
74541;SDS011;63015;45.378;20.360;2022-10-31T05:43:49;129.48;;;28.42;;
74541;SDS011;63015;45.378;20.360;2022-10-31T05:45:53;151.45;;;29.20;;
74541;SDS011;63015;45.378;20.360;2022-10-31T05:48:15;117.43;;;28.33;;
74541;SDS011;63015;45.378;20.360;2022-10-31T05:50:51;107.72;;;27.58;;
74541;SDS011;63015;45.378;20.360;2022-10-31T05:53:02;116.22;;;27.80;;
74541;SDS011;63015;45.378;20.360;2022-10-31T05:55:09;90.20;;;26.92;;
74541;SDS011;63015;45.378;20.360;2022-10-31T05:57:10;111.82;;;26.00;;
74541;SDS011;63015;45.378;20.360;2022-10-31T05:59:11;118.53;;;27.27;;
74541;SDS011;63015;45.378;20.360;2022-10-31T06:01:13;111.40;;;24.98;;
74541;SDS011;63015;45.378;20.360;2022-10-31T06:03:13;105.88;;;27.08;;
74541;SDS011;63015;45.378;20.360;2022-10-31T06:05:40;110.72;;;25.73;;
74541;SDS011;63015;45.378;20.360;2022-10-31T06:07:41;94.70;;;24.38;;
74541;SDS011;63015;45.378;20.360;2022-10-31T06:09:42;96.22;;;24.75;;
74541;SDS011;63015;45.378;20.360;2022-10-31T06:11:43;86.35;;;23.45;;
74541;SDS011;63015;45.378;20.360;2022-10-31T06:14:07;88.60;;;26.05;;
74541;SDS011;63015;45.378;20.360;2022-10-31T06:16:18;82.10;;;25.40;;
74541;SDS011;63015;45.378;20.360;2022-10-31T06:18:19;79.47;;;24.83;;
74541;SDS011;63015;45.378;20.360;2022-10-31T06:20:23;79.38;;;25.17;;
74541;SDS011;63015;45.378;20.360;2022-10-31T06:22:34;67.45;;;21.30;;
74541;SDS011;63015;45.378;20.360;2022-10-31T06:24:35;66.72;;;21.80;;
74541;SDS011;63015;45.378;20.360;2022-10-31T06:26:58;57.78;;;19.98;;
74541;SDS011;63015;45.378;20.360;2022-10-31T06:28:59;69.93;;;24.08;;
74541;SDS011;63015;45.378;20.360;2022-10-31T06:31:18;78.60;;;25.52;;
74541;SDS011;63015;45.378;20.360;2022-10-31T06:33:18;70.93;;;23.65;;
74541;SDS011;63015;45.378;20.360;2022-10-31T06:35:29;76.50;;;24.30;;
74541;SDS011;63015;45.378;20.360;2022-10-31T06:37:30;73.93;;;22.13;;
74541;SDS011;63015;45.378;20.360;2022-10-31T06:39:38;70.70;;;24.70;;
74541;SDS011;63015;45.378;20.360;2022-10-31T06:41:39;78.55;;;25.05;;
74541;SDS011;63015;45.378;20.360;2022-10-31T06:43:45;75.55;;;24.95;;
74541;SDS011;63015;45.378;20.360;2022-10-31T06:46:18;87.20;;;25.45;;
74541;SDS011;63015;45.378;20.360;2022-10-31T06:48:47;79.22;;;25.75;;
74541;SDS011;63015;45.378;20.360;2022-10-31T06:51:00;82.30;;;24.95;;
74541;SDS011;63015;45.378;20.360;2022-10-31T06:53:02;82.60;;;25.98;;
74541;SDS011;63015;45.378;20.360;2022-10-31T06:55:03;77.32;;;24.30;;
74541;SDS011;63015;45.378;20.360;2022-10-31T06:57:05;79.93;;;23.80;;
74541;SDS011;63015;45.378;20.360;2022-10-31T06:59:06;75.07;;;22.95;;
74541;SDS011;63015;45.378;20.360;2022-10-31T07:01:32;71.75;;;22.40;;
74541;SDS011;63015;45.378;20.360;2022-10-31T07:03:35;84.32;;;25.10;;
74541;SDS011;63015;45.378;20.360;2022-10-31T07:05:36;77.45;;;25.13;;
74541;SDS011;63015;45.378;20.360;2022-10-31T07:07:36;73.72;;;24.63;;
74541;SDS011;63015;45.378;20.360;2022-10-31T07:09:37;75.07;;;25.33;;
74541;SDS011;63015;45.378;20.360;2022-10-31T07:11:38;69.88;;;23.08;;
74541;SDS011;63015;45.378;20.360;2022-10-31T07:13:48;70.05;;;23.50;;
74541;SDS011;63015;45.378;20.360;2022-10-31T07:15:49;79.35;;;24.73;;
74541;SDS011;63015;45.378;20.360;2022-10-31T07:17:50;87.70;;;24.35;;
74541;SDS011;63015;45.378;20.360;2022-10-31T07:19:50;74.32;;;23.48;;
74541;SDS011;63015;45.378;20.360;2022-10-31T07:21:51;83.53;;;23.75;;
74541;SDS011;63015;45.378;20.360;2022-10-31T07:23:52;71.50;;;23.77;;
74541;SDS011;63015;45.378;20.360;2022-10-31T07:26:16;93.65;;;22.65;;
74541;SDS011;63015;45.378;20.360;2022-10-31T07:28:20;74.10;;;22.70;;
74541;SDS011;63015;45.378;20.360;2022-10-31T07:30:24;68.53;;;21.85;;
74541;SDS011;63015;45.378;20.360;2022-10-31T07:32:28;75.10;;;22.83;;
74541;SDS011;63015;45.378;20.360;2022-10-31T07:34:39;67.18;;;22.25;;
74541;SDS011;63015;45.378;20.360;2022-10-31T07:36:57;70.25;;;22.60;;
74541;SDS011;63015;45.378;20.360;2022-10-31T07:38:58;76.72;;;23.42;;
74541;SDS011;63015;45.378;20.360;2022-10-31T07:40:59;79.53;;;23.45;;
74541;SDS011;63015;45.378;20.360;2022-10-31T07:43:05;72.95;;;22.75;;
74541;SDS011;63015;45.378;20.360;2022-10-31T07:45:44;76.15;;;23.80;;
74541;SDS011;63015;45.378;20.360;2022-10-31T07:48:08;66.80;;;21.30;;
74541;SDS011;63015;45.378;20.360;2022-10-31T07:50:32;67.03;;;21.55;;
74541;SDS011;63015;45.378;20.360;2022-10-31T07:53:09;73.82;;;20.80;;
74541;SDS011;63015;45.378;20.360;2022-10-31T07:55:26;66.55;;;22.30;;
74541;SDS011;63015;45.378;20.360;2022-10-31T07:57:31;57.97;;;20.00;;
74541;SDS011;63015;45.378;20.360;2022-10-31T07:59:32;68.13;;;21.60;;
74541;SDS011;63015;45.378;20.360;2022-10-31T08:01:34;65.60;;;22.80;;
74541;SDS011;63015;45.378;20.360;2022-10-31T08:03:55;66.30;;;21.35;;
74541;SDS011;63015;45.378;20.360;2022-10-31T08:06:24;70.00;;;22.67;;
74541;SDS011;63015;45.378;20.360;2022-10-31T08:08:45;74.85;;;22.67;;
74541;SDS011;63015;45.378;20.360;2022-10-31T08:10:45;61.80;;;21.23;;
74541;SDS011;63015;45.378;20.360;2022-10-31T08:12:47;69.97;;;23.65;;
74541;SDS011;63015;45.378;20.360;2022-10-31T08:14:47;65.35;;;20.42;;
74541;SDS011;63015;45.378;20.360;2022-10-31T08:16:52;65.20;;;23.33;;
74541;SDS011;63015;45.378;20.360;2022-10-31T08:18:53;69.72;;;22.98;;
74541;SDS011;63015;45.378;20.360;2022-10-31T08:20:56;75.90;;;23.02;;
74541;SDS011;63015;45.378;20.360;2022-10-31T08:22:58;68.25;;;22.70;;
74541;SDS011;63015;45.378;20.360;2022-10-31T08:25:00;66.30;;;23.63;;
74541;SDS011;63015;45.378;20.360;2022-10-31T08:27:01;68.05;;;23.17;;
74541;SDS011;63015;45.378;20.360;2022-10-31T08:29:02;57.75;;;19.52;;
74541;SDS011;63015;45.378;20.360;2022-10-31T08:31:06;62.92;;;22.42;;
74541;SDS011;63015;45.378;20.360;2022-10-31T08:33:16;58.13;;;19.50;;
74541;SDS011;63015;45.378;20.360;2022-10-31T08:35:44;60.03;;;19.92;;
74541;SDS011;63015;45.378;20.360;2022-10-31T08:38:05;59.90;;;21.70;;
74541;SDS011;63015;45.378;20.360;2022-10-31T08:40:08;61.75;;;22.75;;
74541;SDS011;63015;45.378;20.360;2022-10-31T08:42:09;58.38;;;19.55;;
74541;SDS011;63015;45.378;20.360;2022-10-31T08:44:10;57.35;;;20.67;;
74541;SDS011;63015;45.378;20.360;2022-10-31T08:46:11;59.47;;;20.55;;
74541;SDS011;63015;45.378;20.360;2022-10-31T08:48:16;55.58;;;20.75;;
74541;SDS011;63015;45.378;20.360;2022-10-31T08:52:22;52.40;;;19.88;;
74541;SDS011;63015;45.378;20.360;2022-10-31T08:54:25;56.00;;;20.02;;
74541;SDS011;63015;45.378;20.360;2022-10-31T08:56:53;53.33;;;19.88;;
74541;SDS011;63015;45.378;20.360;2022-10-31T08:59:23;56.63;;;19.50;;
74541;SDS011;63015;45.378;20.360;2022-10-31T09:01:47;55.20;;;19.10;;
74541;SDS011;63015;45.378;20.360;2022-10-31T09:03:48;57.40;;;19.73;;
74541;SDS011;63015;45.378;20.360;2022-10-31T09:05:49;54.90;;;19.70;;
74541;SDS011;63015;45.378;20.360;2022-10-31T09:07:50;54.15;;;20.52;;
74541;SDS011;63015;45.378;20.360;2022-10-31T09:09:52;57.33;;;21.25;;
74541;SDS011;63015;45.378;20.360;2022-10-31T09:11:53;50.00;;;18.55;;
74541;SDS011;63015;45.378;20.360;2022-10-31T09:14:14;50.60;;;18.75;;
74541;SDS011;63015;45.378;20.360;2022-10-31T09:16:33;52.88;;;20.42;;
74541;SDS011;63015;45.378;20.360;2022-10-31T09:18:34;52.20;;;20.27;;
74541;SDS011;63015;45.378;20.360;2022-10-31T09:20:35;55.55;;;21.55;;
74541;SDS011;63015;45.378;20.360;2022-10-31T09:22:38;49.42;;;19.67;;
74541;SDS011;63015;45.378;20.360;2022-10-31T09:24:38;56.30;;;22.50;;
74541;SDS011;63015;45.378;20.360;2022-10-31T09:26:39;51.60;;;19.48;;
74541;SDS011;63015;45.378;20.360;2022-10-31T09:28:58;56.25;;;22.15;;
74541;SDS011;63015;45.378;20.360;2022-10-31T09:31:02;58.35;;;21.90;;
74541;SDS011;63015;45.378;20.360;2022-10-31T09:33:29;55.65;;;21.85;;
74541;SDS011;63015;45.378;20.360;2022-10-31T09:35:50;51.22;;;21.13;;
74541;SDS011;63015;45.378;20.360;2022-10-31T09:37:57;58.88;;;21.58;;
74541;SDS011;63015;45.378;20.360;2022-10-31T09:40:00;56.55;;;21.55;;
74541;SDS011;63015;45.378;20.360;2022-10-31T09:46:31;58.65;;;21.40;;
74541;SDS011;63015;45.378;20.360;2022-10-31T09:49:20;52.28;;;21.70;;
74541;SDS011;63015;45.378;20.360;2022-10-31T09:54:03;54.58;;;21.25;;
74541;SDS011;63015;45.378;20.360;2022-10-31T09:56:26;51.80;;;19.52;;
74541;SDS011;63015;45.378;20.360;2022-10-31T09:58:31;51.90;;;20.45;;
74541;SDS011;63015;45.378;20.360;2022-10-31T10:00:35;54.88;;;22.63;;
74541;SDS011;63015;45.378;20.360;2022-10-31T10:02:40;50.50;;;20.05;;
74541;SDS011;63015;45.378;20.360;2022-10-31T10:07:08;48.25;;;20.63;;
74541;SDS011;63015;45.378;20.360;2022-10-31T10:09:20;47.00;;;19.00;;
74541;SDS011;63015;45.378;20.360;2022-10-31T10:12:15;48.33;;;18.50;;
74541;SDS011;63015;45.378;20.360;2022-10-31T10:25:40;49.17;;;20.95;;
74541;SDS011;63015;45.378;20.360;2022-10-31T10:27:45;50.38;;;22.40;;
74541;SDS011;63015;45.378;20.360;2022-10-31T10:30:07;53.53;;;21.67;;
74541;SDS011;63015;45.378;20.360;2022-10-31T10:32:25;50.70;;;23.88;;
74541;SDS011;63015;45.378;20.360;2022-10-31T10:36:56;50.42;;;21.75;;
74541;SDS011;63015;45.378;20.360;2022-10-31T10:39:08;52.95;;;23.52;;
74541;SDS011;63015;45.378;20.360;2022-10-31T10:41:17;48.47;;;20.63;;
74541;SDS011;63015;45.378;20.360;2022-10-31T10:43:21;54.20;;;22.50;;
74541;SDS011;63015;45.378;20.360;2022-10-31T10:45:35;50.05;;;21.92;;
74541;SDS011;63015;45.378;20.360;2022-10-31T10:47:58;56.95;;;25.58;;
74541;SDS011;63015;45.378;20.360;2022-10-31T10:50:20;59.92;;;26.52;;
74541;SDS011;63015;45.378;20.360;2022-10-31T10:52:30;62.30;;;26.73;;
74541;SDS011;63015;45.378;20.360;2022-10-31T11:01:14;53.67;;;24.63;;
74541;SDS011;63015;45.378;20.360;2022-10-31T11:03:16;56.13;;;26.80;;
74541;SDS011;63015;45.378;20.360;2022-10-31T11:07:38;44.03;;;20.65;;
74541;SDS011;63015;45.378;20.360;2022-10-31T11:09:39;45.97;;;20.00;;
74541;SDS011;63015;45.378;20.360;2022-10-31T11:11:40;54.30;;;19.85;;
74541;SDS011;63015;45.378;20.360;2022-10-31T11:13:41;45.90;;;19.48;;
74541;SDS011;63015;45.378;20.360;2022-10-31T11:16:03;49.42;;;20.98;;
74541;SDS011;63015;45.378;20.360;2022-10-31T11:18:12;48.20;;;20.20;;
74541;SDS011;63015;45.378;20.360;2022-10-31T11:20:33;46.35;;;20.20;;
74541;SDS011;63015;45.378;20.360;2022-10-31T11:22:36;39.95;;;17.33;;
74541;SDS011;63015;45.378;20.360;2022-10-31T11:24:37;40.72;;;16.85;;
74541;SDS011;63015;45.378;20.360;2022-10-31T11:26:41;39.40;;;16.30;;
74541;SDS011;63015;45.378;20.360;2022-10-31T11:28:43;41.25;;;17.85;;
74541;SDS011;63015;45.378;20.360;2022-10-31T11:30:48;41.30;;;17.13;;
74541;SDS011;63015;45.378;20.360;2022-10-31T11:32:51;41.00;;;16.48;;
74541;SDS011;63015;45.378;20.360;2022-10-31T11:34:57;38.75;;;16.17;;
74541;SDS011;63015;45.378;20.360;2022-10-31T11:37:23;37.05;;;14.77;;
74541;SDS011;63015;45.378;20.360;2022-10-31T11:39:27;38.53;;;17.73;;
74541;SDS011;63015;45.378;20.360;2022-10-31T11:41:28;41.67;;;18.48;;
74541;SDS011;63015;45.378;20.360;2022-10-31T11:43:32;44.33;;;18.70;;
74541;SDS011;63015;45.378;20.360;2022-10-31T11:45:32;41.78;;;17.73;;
74541;SDS011;63015;45.378;20.360;2022-10-31T11:47:34;39.67;;;18.55;;
74541;SDS011;63015;45.378;20.360;2022-10-31T11:49:40;42.95;;;17.50;;
74541;SDS011;63015;45.378;20.360;2022-10-31T11:51:46;40.33;;;17.35;;
74541;SDS011;63015;45.378;20.360;2022-10-31T11:53:52;44.53;;;20.23;;
74541;SDS011;63015;45.378;20.360;2022-10-31T11:56:09;45.72;;;19.83;;
74541;SDS011;63015;45.378;20.360;2022-10-31T11:58:20;44.70;;;18.10;;
74541;SDS011;63015;45.378;20.360;2022-10-31T12:02:26;48.20;;;20.98;;
74541;SDS011;63015;45.378;20.360;2022-10-31T12:04:50;45.17;;;21.10;;
74541;SDS011;63015;45.378;20.360;2022-10-31T12:06:53;45.65;;;21.40;;
74541;SDS011;63015;45.378;20.360;2022-10-31T12:08:54;47.75;;;19.63;;
74541;SDS011;63015;45.378;20.360;2022-10-31T12:11:02;48.65;;;22.10;;
74541;SDS011;63015;45.378;20.360;2022-10-31T12:15:38;42.28;;;18.10;;
74541;SDS011;63015;45.378;20.360;2022-10-31T12:30:21;46.38;;;20.65;;
74541;SDS011;63015;45.378;20.360;2022-10-31T12:32:39;45.75;;;21.35;;
74541;SDS011;63015;45.378;20.360;2022-10-31T12:45:49;42.47;;;18.52;;
74541;SDS011;63015;45.378;20.360;2022-10-31T12:59:32;46.22;;;20.20;;
74541;SDS011;63015;45.378;20.360;2022-10-31T13:01:39;42.67;;;20.58;;
74541;SDS011;63015;45.378;20.360;2022-10-31T13:03:52;41.60;;;20.33;;
74541;SDS011;63015;45.378;20.360;2022-10-31T13:05:56;25.05;;;12.95;;
74541;SDS011;63015;45.378;20.360;2022-10-31T13:08:06;40.58;;;17.60;;
74541;SDS011;63015;45.378;20.360;2022-10-31T13:12:18;36.97;;;18.25;;
74541;SDS011;63015;45.378;20.360;2022-10-31T13:14:34;29.00;;;15.70;;
74541;SDS011;63015;45.378;20.360;2022-10-31T13:16:41;34.55;;;17.73;;
74541;SDS011;63015;45.378;20.360;2022-10-31T13:20:52;33.42;;;17.65;;
74541;SDS011;63015;45.378;20.360;2022-10-31T13:25:14;32.80;;;15.85;;
74541;SDS011;63015;45.378;20.360;2022-10-31T13:27:24;35.92;;;15.43;;
74541;SDS011;63015;45.378;20.360;2022-10-31T13:29:56;36.60;;;15.98;;
74541;SDS011;63015;45.378;20.360;2022-10-31T13:32:06;25.90;;;12.18;;
74541;SDS011;63015;45.378;20.360;2022-10-31T13:40:55;38.30;;;17.60;;
74541;SDS011;63015;45.378;20.360;2022-10-31T13:45:22;36.50;;;17.55;;
74541;SDS011;63015;45.378;20.360;2022-10-31T13:51:31;35.80;;;18.10;;
74541;SDS011;63015;45.378;20.360;2022-10-31T13:53:38;35.78;;;19.05;;
74541;SDS011;63015;45.378;20.360;2022-10-31T13:55:46;36.88;;;18.98;;
74541;SDS011;63015;45.378;20.360;2022-10-31T13:58:53;34.30;;;18.27;;
74541;SDS011;63015;45.378;20.360;2022-10-31T14:00:27;35.15;;;17.15;;
74541;SDS011;63015;45.378;20.360;2022-10-31T14:02:32;39.05;;;19.08;;
74541;SDS011;63015;45.378;20.360;2022-10-31T14:04:38;35.72;;;18.77;;
74541;SDS011;63015;45.378;20.360;2022-10-31T14:08:54;37.15;;;20.13;;
74541;SDS011;63015;45.378;20.360;2022-10-31T14:10:54;40.10;;;18.45;;
74541;SDS011;63015;45.378;20.360;2022-10-31T14:13:31;38.28;;;19.05;;
74541;SDS011;63015;45.378;20.360;2022-10-31T14:15:32;37.03;;;18.27;;
74541;SDS011;63015;45.378;20.360;2022-10-31T14:17:37;37.40;;;19.63;;
74541;SDS011;63015;45.378;20.360;2022-10-31T14:19:58;35.05;;;16.83;;
74541;SDS011;63015;45.378;20.360;2022-10-31T14:22:01;37.53;;;20.65;;